Time;durP1;ratioP1;P1;durP2;ratioP2;P2;SDS_P1;SDS_P2;PMS_P1;PMS_P2;Temp;Humidity;BMP_temperature;BMP_pressure;BME280_temperature;BME280_humidity;BME280_pressure;Samples;Min_cycle;Max_cycle;Signal;HPM_P1;HPM_P2
2023/12/11 00:02:20;;;;;;;2.95;1.05;;;;;;;;;;6216586;23;20046;-88
2023/12/11 00:05:06;;;;;;;1.80;0.98;;;;;;;;;;6216276;23;20038;-89
2023/12/11 00:07:51;;;;;;;3.33;1.15;;;;;;;;;;6237777;23;20372;-88
2023/12/11 00:10:36;;;;;;;2.53;0.88;;;;;;;;;;6216312;23;20067;-88
2023/12/11 00:13:21;;;;;;;1.70;1.23;;;;;;;;;;6216921;23;20416;-87
2023/12/11 00:16:07;;;;;;;3.17;1.08;;;;;;;;;;6219535;23;20004;-87
2023/12/11 00:18:52;;;;;;;2.08;1.05;;;;;;;;;;6219402;23;20000;-87
2023/12/11 00:21:37;;;;;;;5.43;1.27;;;;;;;;;;6218873;23;19996;-87
2023/12/11 00:24:22;;;;;;;1.63;1.00;;;;;;;;;;6219799;23;20541;-88
2023/12/11 00:27:07;;;;;;;4.43;1.10;;;;;;;;;;6218502;23;20077;-87
2023/12/11 00:29:53;;;;;;;1.77;1.10;;;;;;;;;;6217377;23;20015;-88
2023/12/11 00:32:38;;;;;;;2.38;1.10;;;;;;;;;;6217101;23;20090;-88
2023/12/11 00:35:24;;;;;;;1.90;1.08;;;;;;;;;;6216756;23;20019;-88
2023/12/11 00:38:09;;;;;;;1.42;1.02;;;;;;;;;;6216993;23;20015;-88
2023/12/11 00:40:54;;;;;;;3.58;1.00;;;;;;;;;;6215881;23;20039;-89
2023/12/11 00:43:39;;;;;;;3.85;1.25;;;;;;;;;;6219797;23;20394;-87
2023/12/11 00:46:25;;;;;;;3.92;1.20;;;;;;;;;;6221881;23;20027;-88
2023/12/11 00:49:10;;;;;;;1.85;1.00;;;;;;;;;;6216058;23;20004;-89
2023/12/11 00:51:56;;;;;;;5.22;1.30;;;;;;;;;;6216683;23;20001;-87
2023/12/11 00:54:41;;;;;;;1.67;0.90;;;;;;;;;;6215929;23;20000;-88
2023/12/11 00:57:27;;;;;;;2.17;0.70;;;;;;;;;;6215237;23;20001;-88
2023/12/11 01:00:12;;;;;;;1.40;1.00;;;;;;;;;;6216098;23;20064;-86
2023/12/11 01:02:57;;;;;;;2.20;1.30;;;;;;;;;;6216510;23;20000;-88
2023/12/11 01:05:43;;;;;;;2.45;1.13;;;;;;;;;;6215743;23;20008;-88
2023/12/11 01:08:28;;;;;;;1.27;0.63;;;;;;;;;;6216679;23;20038;-88
2023/12/11 01:11:13;;;;;;;3.15;1.00;;;;;;;;;;6215698;23;20003;-88
2023/12/11 01:13:59;;;;;;;1.80;0.90;;;;;;;;;;6215629;23;20307;-88
2023/12/11 01:16:47;;;;;;;2.33;0.90;;;;;;;;;;6215067;23;20436;-88
2023/12/11 01:19:32;;;;;;;3.85;0.90;;;;;;;;;;6215593;23;20011;-88
2023/12/11 01:22:17;;;;;;;2.50;0.82;;;;;;;;;;6216303;23;20445;-87
2023/12/11 01:25:03;;;;;;;3.13;0.90;;;;;;;;;;6215527;23;20000;-89
2023/12/11 01:27:48;;;;;;;1.98;0.80;;;;;;;;;;6216114;23;20464;-89
2023/12/11 01:30:33;;;;;;;2.42;0.85;;;;;;;;;;6216052;23;20450;-89
2023/12/11 01:33:18;;;;;;;1.65;0.80;;;;;;;;;;6194209;23;20317;-89
2023/12/11 01:36:04;;;;;;;1.83;0.75;;;;;;;;;;6215938;23;20426;-88
2023/12/11 01:38:50;;;;;;;3.17;1.05;;;;;;;;;;6215951;23;20019;-88
2023/12/11 01:41:35;;;;;;;0.93;0.77;;;;;;;;;;6215312;23;20000;-87
2023/12/11 01:44:20;;;;;;;2.47;1.05;;;;;;;;;;6215981;23;20061;-88
2023/12/11 01:47:06;;;;;;;1.42;0.80;;;;;;;;;;6215107;23;20028;-87
2023/12/11 01:49:51;;;;;;;2.22;0.80;;;;;;;;;;6214992;23;20008;-87
2023/12/11 01:52:37;;;;;;;1.95;0.80;;;;;;;;;;6215389;23;20062;-87
2023/12/11 01:55:22;;;;;;;1.55;0.80;;;;;;;;;;6215520;23;20004;-86
2023/12/11 01:58:08;;;;;;;2.30;0.82;;;;;;;;;;6215647;23;20008;-86
2023/12/11 02:00:53;;;;;;;1.70;0.70;;;;;;;;;;6214989;23;20032;-87
2023/12/11 02:03:40;;;;;;;1.00;0.70;;;;;;;;;;6216287;23;19996;-88
2023/12/11 02:06:25;;;;;;;2.67;0.90;;;;;;;;;;6193755;23;20000;-87
2023/12/11 02:09:11;;;;;;;1.67;0.88;;;;;;;;;;6215963;22;20087;-87
2023/12/11 02:11:56;;;;;;;3.80;0.95;;;;;;;;;;6215803;23;19996;-87
2023/12/11 02:14:42;;;;;;;3.20;0.70;;;;;;;;;;6215630;23;20019;-86
2023/12/11 02:17:27;;;;;;;2.28;1.35;;;;;;;;;;6216327;23;20011;-87
2023/12/11 02:20:12;;;;;;;1.13;0.70;;;;;;;;;;6215536;23;19996;-88
2023/12/11 02:23:00;;;;;;;2.60;0.85;;;;;;;;;;6215537;23;19996;-87
2023/12/11 02:25:47;;;;;;;3.42;0.82;;;;;;;;;;6215605;23;20007;-86
2023/12/11 02:28:33;;;;;;;2.63;0.77;;;;;;;;;;6194395;23;19999;-86
2023/12/11 02:31:18;;;;;;;1.20;0.88;;;;;;;;;;6216135;23;20007;-87
2023/12/11 02:34:04;;;;;;;0.98;0.60;;;;;;;;;;6215453;23;20235;-87
2023/12/11 02:36:49;;;;;;;0.65;0.65;;;;;;;;;;6215729;23;20083;-87
2023/12/11 02:39:34;;;;;;;1.38;0.60;;;;;;;;;;6214941;23;20079;-86
2023/12/11 02:42:19;;;;;;;2.03;1.10;;;;;;;;;;6215089;23;19996;-87
2023/12/11 02:45:05;;;;;;;5.25;0.90;;;;;;;;;;6214935;23;20051;-87
2023/12/11 02:47:50;;;;;;;1.15;0.70;;;;;;;;;;6215885;23;20000;-87
2023/12/11 02:50:35;;;;;;;3.95;1.02;;;;;;;;;;6215276;23;20031;-86
2023/12/11 02:53:21;;;;;;;3.08;0.77;;;;;;;;;;6215270;23;20008;-87
2023/12/11 02:56:06;;;;;;;1.77;0.80;;;;;;;;;;6214439;23;20000;-87
2023/12/11 02:58:52;;;;;;;2.17;1.23;;;;;;;;;;6214735;23;20004;-86
2023/12/11 03:01:38;;;;;;;2.45;0.73;;;;;;;;;;6216710;23;19992;-87
2023/12/11 03:04:24;;;;;;;2.03;0.82;;;;;;;;;;6220289;23;20011;-88
2023/12/11 03:07:09;;;;;;;0.98;0.75;;;;;;;;;;6220734;23;20007;-87
2023/12/11 03:09:54;;;;;;;1.27;0.75;;;;;;;;;;6220636;23;19999;-87
2023/12/11 03:12:39;;;;;;;2.00;0.95;;;;;;;;;;6220174;23;20066;-87
2023/12/11 03:15:25;;;;;;;1.95;0.90;;;;;;;;;;6220813;23;20107;-87
2023/12/11 03:18:10;;;;;;;5.05;1.00;;;;;;;;;;6221334;23;20027;-86
2023/12/11 03:20:55;;;;;;;4.05;1.00;;;;;;;;;;6220430;23;20058;-88
2023/12/11 03:23:40;;;;;;;0.90;0.68;;;;;;;;;;6220812;23;20000;-87
2023/12/11 03:26:26;;;;;;;4.90;0.95;;;;;;;;;;6220732;23;19996;-88
2023/12/11 03:29:11;;;;;;;4.22;1.02;;;;;;;;;;6220010;23;19996;-86
2023/12/11 03:31:56;;;;;;;1.38;0.85;;;;;;;;;;6221039;23;20134;-87
2023/12/11 03:34:41;;;;;;;0.88;0.80;;;;;;;;;;6221727;23;20011;-89
2023/12/11 03:37:27;;;;;;;1.33;0.65;;;;;;;;;;6220849;23;20004;-87
2023/12/11 03:40:12;;;;;;;3.60;1.23;;;;;;;;;;6220460;23;20004;-87
2023/12/11 03:42:57;;;;;;;2.97;0.98;;;;;;;;;;6220601;23;19996;-87
2023/12/11 03:45:42;;;;;;;2.08;0.65;;;;;;;;;;6219213;23;20075;-88
2023/12/11 03:48:28;;;;;;;1.52;1.10;;;;;;;;;;6220671;23;20000;-89
2023/12/11 03:51:13;;;;;;;2.03;1.08;;;;;;;;;;6221054;23;19997;-89
2023/12/11 03:54:00;;;;;;;4.18;1.10;;;;;;;;;;6220640;23;20057;-89
2023/12/11 03:56:45;;;;;;;0.65;0.65;;;;;;;;;;6220002;23;19992;-87
2023/12/11 03:59:32;;;;;;;2.00;0.70;;;;;;;;;;6199743;23;20071;-87
2023/12/11 04:02:17;;;;;;;1.60;1.23;;;;;;;;;;6217821;23;19996;-89
2023/12/11 04:05:03;;;;;;;2.60;0.80;;;;;;;;;;6219666;23;20071;-89
2023/12/11 04:07:49;;;;;;;1.33;0.70;;;;;;;;;;6220750;23;20000;-88
2023/12/11 04:10:34;;;;;;;1.25;0.60;;;;;;;;;;6216434;23;20008;-88
2023/12/11 04:13:19;;;;;;;1.15;0.80;;;;;;;;;;6216264;23;20027;-88
2023/12/11 04:16:05;;;;;;;1.05;0.70;;;;;;;;;;6216082;23;20058;-88
2023/12/11 04:18:50;;;;;;;3.80;0.85;;;;;;;;;;6217733;23;20012;-88
2023/12/11 04:21:36;;;;;;;3.53;0.98;;;;;;;;;;6216796;23;19999;-88
2023/12/11 04:24:21;;;;;;;1.33;0.65;;;;;;;;;;6217046;23;20039;-88
2023/12/11 04:27:06;;;;;;;1.58;0.60;;;;;;;;;;6216296;23;20048;-88
2023/12/11 04:29:52;;;;;;;2.28;0.65;;;;;;;;;;6216781;23;20079;-88
2023/12/11 04:32:37;;;;;;;1.27;0.80;;;;;;;;;;6238033;23;20283;-87
2023/12/11 04:35:22;;;;;;;0.95;0.60;;;;;;;;;;6217140;23;20372;-88
2023/12/11 04:38:07;;;;;;;1.55;0.80;;;;;;;;;;6216575;23;20007;-88
2023/12/11 04:40:53;;;;;;;3.30;0.75;;;;;;;;;;6216918;23;20004;-88
2023/12/11 04:43:38;;;;;;;2.03;0.85;;;;;;;;;;6216254;23;20000;-87
2023/12/11 04:46:23;;;;;;;2.05;1.00;;;;;;;;;;6216337;23;20007;-87
2023/12/11 04:49:08;;;;;;;3.60;0.90;;;;;;;;;;6214809;23;20027;-88
2023/12/11 04:51:54;;;;;;;2.25;0.55;;;;;;;;;;6195132;23;20400;-87
2023/12/11 04:54:40;;;;;;;2.17;0.80;;;;;;;;;;6195706;23;20109;-87
2023/12/11 04:57:26;;;;;;;0.85;0.65;;;;;;;;;;6215534;23;20787;-87
2023/12/11 05:00:11;;;;;;;1.48;0.90;;;;;;;;;;6215289;23;20027;-87
2023/12/11 05:02:56;;;;;;;1.13;0.73;;;;;;;;;;6216317;23;20050;-88
2023/12/11 05:05:42;;;;;;;5.88;1.13;;;;;;;;;;6214163;23;20007;-89
2023/12/11 05:08:27;;;;;;;2.17;0.80;;;;;;;;;;6216538;23;20421;-88
2023/12/11 05:11:12;;;;;;;1.85;0.80;;;;;;;;;;6217281;23;19996;-87
2023/12/11 05:13:57;;;;;;;1.30;0.70;;;;;;;;;;6216860;23;20433;-86
2023/12/11 05:16:43;;;;;;;3.97;0.88;;;;;;;;;;6216694;23;20011;-87
2023/12/11 05:19:28;;;;;;;2.85;0.85;;;;;;;;;;6217166;23;20000;-87
2023/12/11 05:22:13;;;;;;;1.75;1.08;;;;;;;;;;6216235;23;20371;-88
2023/12/11 05:24:59;;;;;;;4.00;2.00;;;;;;;;;;6216473;23;20007;-88
2023/12/11 05:27:44;;;;;;;5.25;1.40;;;;;;;;;;6216517;23;19996;-87
2023/12/11 05:30:30;;;;;;;5.85;2.97;;;;;;;;;;6215861;23;20421;-88
2023/12/11 05:33:15;;;;;;;4.65;2.35;;;;;;;;;;6218120;23;19995;-87
2023/12/11 05:36:01;;;;;;;1.83;1.10;;;;;;;;;;6217740;23;20039;-87
2023/12/11 05:38:46;;;;;;;3.42;1.17;;;;;;;;;;6217641;23;20003;-87
2023/12/11 05:41:31;;;;;;;1.00;0.90;;;;;;;;;;6217993;23;19992;-87
2023/12/11 05:44:17;;;;;;;3.38;0.90;;;;;;;;;;6218330;23;20004;-88
2023/12/11 05:47:03;;;;;;;4.43;0.98;;;;;;;;;;6215223;23;20007;-87
2023/12/11 05:49:48;;;;;;;6.57;1.58;;;;;;;;;;6217616;23;20047;-88
2023/12/11 05:52:33;;;;;;;4.68;1.77;;;;;;;;;;6216221;23;20000;-87
2023/12/11 05:55:19;;;;;;;3.80;1.20;;;;;;;;;;6217487;23;20004;-87
2023/12/11 05:58:04;;;;;;;2.95;1.80;;;;;;;;;;6216664;23;20053;-86
2023/12/11 06:00:49;;;;;;;5.45;1.60;;;;;;;;;;6216636;23;20425;-86
2023/12/11 06:03:35;;;;;;;2.25;1.60;;;;;;;;;;6215746;23;20443;-86
2023/12/11 06:06:20;;;;;;;3.20;1.42;;;;;;;;;;6217390;23;20002;-86
2023/12/11 06:09:05;;;;;;;2.08;1.08;;;;;;;;;;6217158;22;20395;-85
2023/12/11 06:11:50;;;;;;;2.50;1.42;;;;;;;;;;6237862;23;20321;-83
2023/12/11 06:14:42;;;;;;;1.90;1.55;;;;;;;;;;6217189;23;20096;-84
2023/12/11 06:17:27;;;;;;;4.68;1.10;;;;;;;;;;6216431;23;20026;-84
2023/12/11 06:20:12;;;;;;;3.92;1.30;;;;;;;;;;6193084;23;19996;-84
2023/12/11 06:22:57;;;;;;;3.92;1.23;;;;;;;;;;6216201;23;19997;-86
2023/12/11 06:25:43;;;;;;;2.65;0.95;;;;;;;;;;6216145;23;20004;-84
2023/12/11 06:28:28;;;;;;;3.22;1.20;;;;;;;;;;6217258;23;20011;-85
2023/12/11 06:31:14;;;;;;;2.83;1.33;;;;;;;;;;6215674;23;20000;-82
2023/12/11 06:33:59;;;;;;;6.97;1.60;;;;;;;;;;6213126;23;20384;-90
2023/12/11 06:36:44;;;;;;;7.15;2.13;;;;;;;;;;6216898;23;20000;-91
2023/12/11 06:39:30;;;;;;;3.90;1.70;;;;;;;;;;6219071;23;20004;-92
2023/12/11 06:42:15;;;;;;;7.40;2.70;;;;;;;;;;6218248;23;20035;-88
2023/12/11 06:45:00;;;;;;;2.15;1.42;;;;;;;;;;6218993;23;20083;-90
2023/12/11 06:47:46;;;;;;;4.00;1.45;;;;;;;;;;6219984;23;20000;-89
2023/12/11 06:50:31;;;;;;;3.38;1.45;;;;;;;;;;6226199;23;20004;-91
2023/12/11 06:53:16;;;;;;;4.15;2.15;;;;;;;;;;6234254;23;20008;-88
2023/12/11 06:56:03;;;;;;;2.30;1.40;;;;;;;;;;6235273;23;20007;-89
2023/12/11 06:58:48;;;;;;;2.38;1.40;;;;;;;;;;6223241;23;20333;-87
2023/12/11 07:01:34;;;;;;;2.72;1.55;;;;;;;;;;6196870;23;20003;-87
2023/12/11 07:04:23;;;;;;;5.22;2.17;;;;;;;;;;6218395;23;19997;-87
2023/12/11 07:07:09;;;;;;;3.20;1.80;;;;;;;;;;6222135;23;20015;-88
2023/12/11 07:09:54;;;;;;;3.00;1.42;;;;;;;;;;6219443;23;20054;-88
2023/12/11 07:12:42;;;;;;;1.42;1.30;;;;;;;;;;6219494;23;20023;-88
2023/12/11 07:15:28;;;;;;;3.63;1.80;;;;;;;;;;6199616;23;20083;-88
2023/12/11 07:18:13;;;;;;;3.83;2.05;;;;;;;;;;6243810;23;20030;-89
2023/12/11 07:20:59;;;;;;;5.82;2.10;;;;;;;;;;6246957;22;20007;-89
2023/12/11 07:23:44;;;;;;;3.90;2.50;;;;;;;;;;6247247;22;19999;-90
2023/12/11 07:26:29;;;;;;;5.78;2.33;;;;;;;;;;6247784;22;19988;-90
2023/12/11 07:29:14;;;;;;;3.90;2.20;;;;;;;;;;6247417;22;19981;-89
2023/12/11 07:31:59;;;;;;;6.53;1.60;;;;;;;;;;6229911;23;20340;-90
2023/12/11 07:34:45;;;;;;;2.00;1.50;;;;;;;;;;6219656;23;20011;-90
2023/12/11 07:37:30;;;;;;;3.03;1.30;;;;;;;;;;6221308;23;20078;-88
2023/12/11 07:40:16;;;;;;;3.55;1.60;;;;;;;;;;6221114;23;20000;-88
2023/12/11 07:43:01;;;;;;;3.88;1.55;;;;;;;;;;6224505;23;20000;-88
2023/12/11 07:45:46;;;;;;;2.33;1.20;;;;;;;;;;6223567;23;20000;-89
2023/12/11 07:48:31;;;;;;;2.55;1.40;;;;;;;;;;6197786;23;20373;-89
2023/12/11 07:51:18;;;;;;;5.68;1.85;;;;;;;;;;6219634;23;20054;-90
2023/12/11 07:54:04;;;;;;;1.73;1.20;;;;;;;;;;6224221;23;20008;-90
2023/12/11 07:56:49;;;;;;;3.08;1.55;;;;;;;;;;6200626;23;20003;-91
2023/12/11 07:59:39;;;;;;;3.28;1.80;;;;;;;;;;6219935;23;19996;-88
2023/12/11 08:02:24;;;;;;;5.18;1.73;;;;;;;;;;6220764;23;20050;-88
2023/12/11 08:05:09;;;;;;;4.55;2.28;;;;;;;;;;6218291;23;20058;-87
2023/12/11 08:07:55;;;;;;;7.60;1.80;;;;;;;;;;6217580;23;20015;-86
2023/12/11 08:10:40;;;;;;;3.47;1.60;;;;;;;;;;6217083;23;20541;-84
2023/12/11 08:13:35;;;;;;;11.65;3.08;;;;;;;;;;6217727;23;20095;-85
2023/12/11 08:16:23;;;;;;;4.18;1.48;;;;;;;;;;6232098;23;20070;-86
2023/12/11 08:19:08;;;;;;;4.07;1.52;;;;;;;;;;6238098;23;20437;-85
2023/12/11 08:21:56;;;;;;;11.45;2.88;;;;;;;;;;6216926;23;20078;-85
2023/12/11 08:24:42;;;;;;;4.57;1.58;;;;;;;;;;6215241;23;20008;-85
2023/12/11 08:27:27;;;;;;;7.10;2.00;;;;;;;;;;6195660;23;20035;-85
2023/12/11 08:30:13;;;;;;;1.77;1.00;;;;;;;;;;6195732;23;20142;-85
2023/12/11 08:32:58;;;;;;;1.50;1.13;;;;;;;;;;6216577;23;20036;-86
2023/12/11 08:35:43;;;;;;;8.93;1.60;;;;;;;;;;6218565;23;20032;-86
2023/12/11 08:38:28;;;;;;;3.28;1.27;;;;;;;;;;6216639;23;20000;-85
2023/12/11 08:41:14;;;;;;;5.47;1.88;;;;;;;;;;6217058;23;19992;-86
2023/12/11 08:43:59;;;;;;;6.72;2.45;;;;;;;;;;6217203;23;20385;-86
2023/12/11 08:46:44;;;;;;;3.08;1.30;;;;;;;;;;6216940;23;20062;-86
2023/12/11 08:49:29;;;;;;;6.03;1.88;;;;;;;;;;6217087;23;20041;-86
2023/12/11 08:52:15;;;;;;;6.93;1.67;;;;;;;;;;6217006;23;20000;-86
2023/12/11 08:55:00;;;;;;;1.90;0.88;;;;;;;;;;6217324;23;20306;-86
2023/12/11 08:57:48;;;;;;;5.60;1.23;;;;;;;;;;6216832;23;20000;-84
2023/12/11 09:00:34;;;;;;;7.70;1.35;;;;;;;;;;6215935;23;20024;-87
2023/12/11 09:03:20;;;;;;;2.95;1.30;;;;;;;;;;6216739;23;20376;-85
2023/12/11 09:06:06;;;;;;;1.88;1.05;;;;;;;;;;6216798;23;20004;-85
2023/12/11 09:08:51;;;;;;;2.47;0.98;;;;;;;;;;6237520;23;20610;-85
2023/12/11 09:11:37;;;;;;;2.72;1.20;;;;;;;;;;6237667;23;20050;-85
2023/12/11 09:14:22;;;;;;;3.60;1.17;;;;;;;;;;6223099;23;20012;-86
2023/12/11 09:17:07;;;;;;;2.38;0.93;;;;;;;;;;6222685;23;20003;-84
2023/12/11 09:19:53;;;;;;;2.72;1.00;;;;;;;;;;6210981;23;19992;-85
2023/12/11 09:22:40;;;;;;;2.17;0.93;;;;;;;;;;6216918;23;20648;-86
2023/12/11 09:25:25;;;;;;;2.47;0.77;;;;;;;;;;6238478;23;19996;-85
2023/12/11 09:28:11;;;;;;;1.52;1.00;;;;;;;;;;6216963;23;20451;-86
2023/12/11 09:30:56;;;;;;;2.70;1.08;;;;;;;;;;6216445;23;20000;-87
2023/12/11 09:33:45;;;;;;;2.95;0.80;;;;;;;;;;6216567;23;20214;-86
2023/12/11 09:36:30;;;;;;;6.25;1.27;;;;;;;;;;6216281;23;20711;-86
2023/12/11 09:39:16;;;;;;;6.00;1.48;;;;;;;;;;6216311;23;19997;-86
2023/12/11 09:42:01;;;;;;;7.47;1.48;;;;;;;;;;6194797;23;19997;-86
2023/12/11 09:44:47;;;;;;;6.50;1.52;;;;;;;;;;6215851;23;20027;-86
2023/12/11 09:47:42;;;;;;;6.22;1.40;;;;;;;;;;6216407;23;20026;-86
2023/12/11 09:50:28;;;;;;;3.30;1.42;;;;;;;;;;6215915;23;20004;-86
2023/12/11 09:53:13;;;;;;;6.20;1.42;;;;;;;;;;6216161;23;20039;-86
2023/12/11 09:55:59;;;;;;;4.85;1.80;;;;;;;;;;6195881;23;20374;-87
2023/12/11 09:58:44;;;;;;;6.22;1.38;;;;;;;;;;6216977;23;20092;-87
2023/12/11 10:01:30;;;;;;;2.20;1.02;;;;;;;;;;6216355;23;19996;-87
2023/12/11 10:04:15;;;;;;;5.25;1.50;;;;;;;;;;6222221;23;20000;-86
2023/12/11 10:07:07;;;;;;;12.73;2.20;;;;;;;;;;6225748;23;20003;-85
2023/12/11 10:09:52;;;;;;;6.20;1.70;;;;;;;;;;6223510;23;20008;-86
2023/12/11 10:12:41;;;;;;;5.05;1.25;;;;;;;;;;6216509;23;20016;-86
2023/12/11 10:15:32;;;;;;;6.35;1.48;;;;;;;;;;6216541;23;20277;-85
2023/12/11 10:18:18;;;;;;;14.85;2.47;;;;;;;;;;6216073;23;20000;-85
2023/12/11 10:21:04;;;;;;;4.57;1.52;;;;;;;;;;6216673;23;20002;-87
2023/12/11 10:24:15;;;;;;;2.10;1.25;;;;;;;;;;6216159;23;20298;-85
2023/12/11 10:27:02;;;;;;;3.15;1.55;;;;;;;;;;6216053;23;20031;-85
2023/12/11 10:29:48;;;;;;;2.33;0.90;;;;;;;;;;6215690;23;19992;-85
2023/12/11 10:32:33;;;;;;;1.88;1.02;;;;;;;;;;6215528;23;20345;-86
2023/12/11 10:35:22;;;;;;;3.00;1.35;;;;;;;;;;6216179;23;20031;-86
2023/12/11 10:38:07;;;;;;;5.22;1.48;;;;;;;;;;6216127;23;20058;-85
2023/12/11 10:40:53;;;;;;;2.65;1.30;;;;;;;;;;6215943;23;20007;-85
2023/12/11 10:43:40;;;;;;;4.00;1.30;;;;;;;;;;6215656;23;20011;-84
2023/12/11 10:46:26;;;;;;;9.63;2.05;;;;;;;;;;6215942;23;20476;-85
2023/12/11 10:49:11;;;;;;;1.95;0.90;;;;;;;;;;6215704;23;20433;-85
2023/12/11 10:51:57;;;;;;;3.85;1.15;;;;;;;;;;6215612;23;20063;-86
2023/12/11 10:54:42;;;;;;;2.10;1.33;;;;;;;;;;6215204;23;20032;-87
2023/12/11 10:57:29;;;;;;;1.73;1.10;;;;;;;;;;6215222;23;20337;-85
2023/12/11 11:00:15;;;;;;;6.38;1.52;;;;;;;;;;6215281;23;19997;-86
2023/12/11 11:03:01;;;;;;;4.68;1.73;;;;;;;;;;6216716;23;19996;-86
2023/12/11 11:05:46;;;;;;;2.67;1.02;;;;;;;;;;6215151;23;19996;-86
2023/12/11 11:08:38;;;;;;;2.45;0.98;;;;;;;;;;6215494;23;20019;-86
2023/12/11 11:11:31;;;;;;;2.55;1.05;;;;;;;;;;6216094;23;19996;-86
2023/12/11 11:14:29;;;;;;;3.88;1.60;;;;;;;;;;6215133;23;20008;-85
2023/12/11 11:17:16;;;;;;;4.07;1.33;;;;;;;;;;6194891;23;20005;-86
2023/12/11 11:20:09;;;;;;;3.80;1.10;;;;;;;;;;6215070;23;20002;-86
2023/12/11 11:23:13;;;;;;;4.70;1.50;;;;;;;;;;6215788;23;20000;-85
2023/12/11 11:25:59;;;;;;;3.25;1.30;;;;;;;;;;6195811;23;20011;-85
2023/12/11 11:28:50;;;;;;;9.13;2.08;;;;;;;;;;6217303;23;20071;-85
2023/12/11 11:31:46;;;;;;;4.40;1.85;;;;;;;;;;6218403;23;20039;-85
2023/12/11 11:34:40;;;;;;;2.03;1.10;;;;;;;;;;6216999;23;20000;-87
2023/12/11 11:37:46;;;;;;;2.50;1.40;;;;;;;;;;6216945;23;20372;-85
2023/12/11 11:40:32;;;;;;;3.20;1.50;;;;;;;;;;6217676;23;19992;-86
2023/12/11 11:43:18;;;;;;;7.10;1.88;;;;;;;;;;6216966;23;20146;-85
2023/12/11 11:46:03;;;;;;;7.00;1.77;;;;;;;;;;6216737;23;20182;-85
2023/12/11 11:48:49;;;;;;;9.00;2.00;;;;;;;;;;6196820;23;20084;-86
2023/12/11 11:51:34;;;;;;;9.93;1.88;;;;;;;;;;6217184;23;20495;-85
2023/12/11 11:54:22;;;;;;;7.18;1.58;;;;;;;;;;6216481;23;20019;-85
2023/12/11 11:57:07;;;;;;;5.70;1.33;;;;;;;;;;6217496;23;20011;-86
2023/12/11 11:59:53;;;;;;;5.32;1.55;;;;;;;;;;6217696;23;20051;-86
2023/12/11 12:02:39;;;;;;;3.35;1.60;;;;;;;;;;6201898;23;20114;-86
2023/12/11 12:05:26;;;;;;;5.68;1.73;;;;;;;;;;6226597;23;19997;-86
2023/12/11 12:08:11;;;;;;;11.13;2.22;;;;;;;;;;6220209;23;20059;-86
2023/12/11 12:10:56;;;;;;;11.60;2.42;;;;;;;;;;6216883;23;19996;-86
2023/12/11 12:13:42;;;;;;;16.27;3.42;;;;;;;;;;6216785;23;20069;-85
2023/12/11 12:16:31;;;;;;;9.95;2.25;;;;;;;;;;6216508;23;20024;-85
2023/12/11 12:19:17;;;;;;;5.57;1.50;;;;;;;;;;6195773;23;20003;-86
2023/12/11 12:22:02;;;;;;;4.53;1.70;;;;;;;;;;6216985;23;20295;-86
2023/12/11 12:24:51;;;;;;;8.48;1.80;;;;;;;;;;6216438;23;20008;-86
2023/12/11 12:27:36;;;;;;;9.60;3.83;;;;;;;;;;6217320;23;20084;-86
2023/12/11 12:30:22;;;;;;;7.90;1.65;;;;;;;;;;6216401;23;20023;-85
2023/12/11 12:33:09;;;;;;;7.63;1.45;;;;;;;;;;6216545;23;20015;-86
2023/12/11 12:35:55;;;;;;;8.00;1.73;;;;;;;;;;6216697;23;20413;-85
2023/12/11 12:38:40;;;;;;;5.07;2.28;;;;;;;;;;6216282;23;20006;-85
2023/12/11 12:41:26;;;;;;;5.93;1.60;;;;;;;;;;6216369;23;20006;-86
2023/12/11 12:44:11;;;;;;;7.18;1.60;;;;;;;;;;6217155;23;20039;-86
2023/12/11 12:47:03;;;;;;;6.65;1.83;;;;;;;;;;6215844;23;20000;-85
2023/12/11 12:49:48;;;;;;;10.10;1.80;;;;;;;;;;6217870;23;20012;-85
2023/12/11 12:52:36;;;;;;;6.00;1.60;;;;;;;;;;6217048;23;20008;-85
2023/12/11 12:55:28;;;;;;;9.07;2.28;;;;;;;;;;6216240;23;20471;-85
2023/12/11 12:58:13;;;;;;;6.38;1.80;;;;;;;;;;6216496;23;19992;-84
2023/12/11 13:00:58;;;;;;;6.82;1.83;;;;;;;;;;6217197;23;20000;-85
2023/12/11 13:03:43;;;;;;;6.05;1.77;;;;;;;;;;6216417;23;20012;-84
2023/12/11 13:06:28;;;;;;;7.97;1.83;;;;;;;;;;6215755;23;20012;-84
2023/12/11 13:09:34;;;;;;;8.63;1.65;;;;;;;;;;6195474;22;20444;-85
2023/12/11 13:12:20;;;;;;;6.43;1.70;;;;;;;;;;6216825;23;20007;-85
2023/12/11 13:15:09;;;;;;;8.40;2.00;;;;;;;;;;6215727;23;20431;-86
2023/12/11 13:17:54;;;;;;;5.50;1.30;;;;;;;;;;6215672;23;20382;-85
2023/12/11 13:20:39;;;;;;;3.08;1.13;;;;;;;;;;6237432;23;20137;-85
2023/12/11 13:23:27;;;;;;;4.45;1.73;;;;;;;;;;6216653;23;20479;-86
2023/12/11 13:26:12;;;;;;;7.03;2.55;;;;;;;;;;6216823;23;20339;-85
2023/12/11 13:28:57;;;;;;;9.95;2.03;;;;;;;;;;6216622;23;20337;-86
2023/12/11 13:31:43;;;;;;;2.45;1.38;;;;;;;;;;6216543;23;19997;-85
2023/12/11 13:34:28;;;;;;;3.72;1.23;;;;;;;;;;6216540;23;20004;-85
2023/12/11 13:37:13;;;;;;;9.38;2.17;;;;;;;;;;6216113;23;20006;-85
2023/12/11 13:39:59;;;;;;;4.13;1.60;;;;;;;;;;6216287;23;20037;-84
2023/12/11 13:42:44;;;;;;;6.72;2.22;;;;;;;;;;6223494;23;19996;-85
2023/12/11 13:45:29;;;;;;;4.97;1.48;;;;;;;;;;6198063;23;20061;-85
2023/12/11 13:48:15;;;;;;;6.60;1.77;;;;;;;;;;6216068;23;20004;-85
2023/12/11 13:51:00;;;;;;;8.10;1.60;;;;;;;;;;6195163;23;20022;-85
2023/12/11 13:53:45;;;;;;;7.57;2.35;;;;;;;;;;6216952;23;20015;-85
2023/12/11 13:56:33;;;;;;;5.05;1.60;;;;;;;;;;6216172;23;19992;-85
2023/12/11 13:59:18;;;;;;;7.32;1.67;;;;;;;;;;6215742;23;20004;-84
2023/12/11 14:02:03;;;;;;;4.45;1.58;;;;;;;;;;6216060;23;20024;-84
2023/12/11 14:04:49;;;;;;;6.53;2.33;;;;;;;;;;6216252;23;20314;-85
2023/12/11 14:07:34;;;;;;;20.52;4.07;;;;;;;;;;6216312;23;19996;-84
2023/12/11 14:10:19;;;;;;;5.80;1.80;;;;;;;;;;6216336;23;20460;-84
2023/12/11 14:13:04;;;;;;;9.10;2.20;;;;;;;;;;6216163;23;20012;-85
2023/12/11 14:15:50;;;;;;;12.65;3.03;;;;;;;;;;6216321;23;20008;-84
2023/12/11 14:18:35;;;;;;;11.05;2.38;;;;;;;;;;6216349;23;20028;-85
2023/12/11 14:21:20;;;;;;;10.77;2.22;;;;;;;;;;6195168;23;20010;-84
2023/12/11 14:24:06;;;;;;;10.55;2.28;;;;;;;;;;6216336;23;20057;-85
2023/12/11 14:26:52;;;;;;;12.38;2.42;;;;;;;;;;6216159;23;20112;-85
2023/12/11 14:29:37;;;;;;;14.93;2.80;;;;;;;;;;6215906;23;19992;-85
2023/12/11 14:32:22;;;;;;;6.75;1.98;;;;;;;;;;6216614;23;19996;-85
2023/12/11 14:35:08;;;;;;;10.32;2.50;;;;;;;;;;6215908;23;20000;-85
2023/12/11 14:37:53;;;;;;;9.90;2.45;;;;;;;;;;6216060;23;20000;-85
2023/12/11 14:40:38;;;;;;;9.82;2.17;;;;;;;;;;6216679;23;20004;-86
2023/12/11 14:43:24;;;;;;;5.53;2.10;;;;;;;;;;6216271;23;20054;-85
2023/12/11 14:46:09;;;;;;;13.55;2.20;;;;;;;;;;6194998;23;20298;-85
2023/12/11 14:48:54;;;;;;;13.60;2.28;;;;;;;;;;6217132;23;20000;-86
2023/12/11 14:51:40;;;;;;;11.48;2.63;;;;;;;;;;6216368;23;20429;-86
2023/12/11 14:54:25;;;;;;;10.63;2.88;;;;;;;;;;6223121;23;20018;-85
2023/12/11 14:57:10;;;;;;;25.35;5.13;;;;;;;;;;6230192;23;20083;-86
2023/12/11 14:59:55;;;;;;;17.63;4.43;;;;;;;;;;6220124;23;20071;-85
2023/12/11 15:02:40;;;;;;;17.67;3.17;;;;;;;;;;6217900;23;19996;-85
2023/12/11 15:05:26;;;;;;;12.88;3.15;;;;;;;;;;6218324;23;20011;-85
2023/12/11 15:08:11;;;;;;;12.20;2.95;;;;;;;;;;6217611;23;20000;-85
2023/12/11 15:10:56;;;;;;;24.25;2.95;;;;;;;;;;6218457;23;20058;-87
2023/12/11 15:13:42;;;;;;;9.65;2.65;;;;;;;;;;6218255;23;20020;-85
2023/12/11 15:16:27;;;;;;;9.00;3.25;;;;;;;;;;6217495;23;20436;-86
2023/12/11 15:19:13;;;;;;;9.75;2.40;;;;;;;;;;6217951;23;20079;-86
2023/12/11 15:21:59;;;;;;;8.55;2.60;;;;;;;;;;6220219;23;20011;-85
2023/12/11 15:24:46;;;;;;;7.85;2.08;;;;;;;;;;6243122;23;20168;-85
2023/12/11 15:27:31;;;;;;;12.48;2.70;;;;;;;;;;6245570;23;19988;-84
2023/12/11 15:30:16;;;;;;;7.97;2.08;;;;;;;;;;6246341;22;20051;-85
2023/12/11 15:33:02;;;;;;;9.95;3.55;;;;;;;;;;6246826;22;20022;-84
2023/12/11 15:35:47;;;;;;;9.10;2.88;;;;;;;;;;6247041;22;20020;-84
2023/12/11 15:38:34;;;;;;;12.73;2.65;;;;;;;;;;6219938;23;20000;-84
2023/12/11 15:41:19;;;;;;;10.15;2.92;;;;;;;;;;6218358;23;20439;-84
2023/12/11 15:44:05;;;;;;;12.90;3.45;;;;;;;;;;6218357;23;20110;-84
2023/12/11 15:46:50;;;;;;;10.38;2.92;;;;;;;;;;6217858;23;20000;-85
2023/12/11 15:49:36;;;;;;;11.60;3.47;;;;;;;;;;6217584;23;20237;-86
2023/12/11 15:52:24;;;;;;;8.70;2.50;;;;;;;;;;6216791;23;20000;-85
2023/12/11 15:55:09;;;;;;;11.32;2.63;;;;;;;;;;6196509;23;20011;-84
2023/12/11 15:57:55;;;;;;;28.83;10.32;;;;;;;;;;6216631;23;19996;-84
2023/12/11 16:00:40;;;;;;;19.80;7.80;;;;;;;;;;6216697;23;20026;-84
2023/12/11 16:03:25;;;;;;;12.75;3.65;;;;;;;;;;6212772;23;20142;-84
2023/12/11 16:06:11;;;;;;;13.38;3.38;;;;;;;;;;6216742;23;19996;-85
2023/12/11 16:08:56;;;;;;;12.23;3.70;;;;;;;;;;6217380;23;20270;-85
2023/12/11 16:11:41;;;;;;;16.60;4.00;;;;;;;;;;6216844;23;20374;-85
2023/12/11 16:14:27;;;;;;;14.32;4.30;;;;;;;;;;6217027;23;20024;-85
2023/12/11 16:17:12;;;;;;;13.68;4.28;;;;;;;;;;6216126;23;20027;-84
2023/12/11 16:19:57;;;;;;;13.85;3.55;;;;;;;;;;6217426;23;20444;-85
2023/12/11 16:22:43;;;;;;;8.77;3.35;;;;;;;;;;6216636;23;20075;-85
2023/12/11 16:25:29;;;;;;;10.70;4.22;;;;;;;;;;6212072;23;20030;-85
2023/12/11 16:28:14;;;;;;;9.73;3.85;;;;;;;;;;6214900;23;20388;-86
2023/12/11 16:30:59;;;;;;;13.98;3.72;;;;;;;;;;6214431;23;20301;-84
2023/12/11 16:33:44;;;;;;;11.05;3.78;;;;;;;;;;6217133;23;20050;-84